KJVL

Southern Wisconsin Regional Airport

Janesville, Wisconsin, USA
METAR KJVL 240145Z VRB03KT 10SM FEW250 22/16 A3015 RMK LAST
Observed Flight Rules
May-24 @ 01:45 UTC (9 minutes ago) Visual Flight Rules
Wind Visibility Clouds
Variable at 3 knots 10 miles
  • Few at 25,000' AGL
Temperatures Readings
Current 22°C / 72°F
Dewpoint 16°C / 61°F
Humidity 69%
Altimeter 30.15" Hg
Pressure 1021 hPa
Elevation 246
METAR KJVL 240145Z VRB03KT 10SM FEW250 22/16 A3015 RMK LAST
Observed Flight Rules
May-24 @ 01:45 UTC
(9 minutes ago)
VFR
Wind Visibility
Variable at 3 knots 10 miles
Clouds
  • Few at 25,000' AGL
Temperature Dewpoint
22°C / 72°F 16°C / 61°F
Humidity Altimeter Pressure
69% 30.15" Hg 1021 hPa